createdAt,value
2023-03-02T00:01:43.807Z,3.72
2023-03-02T00:04:16.062Z,4.47
2023-03-02T00:06:43.674Z,4.43
2023-03-02T00:09:10.468Z,5.13
2023-03-02T00:11:39.120Z,4.20
2023-03-02T00:14:06.665Z,3.17
2023-03-02T00:16:34.572Z,3.97
2023-03-02T00:19:01.557Z,3.80
2023-03-02T00:21:28.368Z,3.58
2023-03-02T00:23:55.102Z,4.22
2023-03-02T00:26:22.170Z,3.65
2023-03-02T00:28:49.454Z,3.42
2023-03-02T00:31:16.785Z,3.40
2023-03-02T00:33:43.671Z,8.48
2023-03-02T00:36:18.126Z,6.43
2023-03-02T00:38:45.294Z,4.60
2023-03-02T00:41:13.721Z,4.45
2023-03-02T00:43:41.403Z,6.20
2023-03-02T00:46:13.399Z,4.15
2023-03-02T00:48:40.505Z,3.63
2023-03-02T00:51:07.844Z,5.75
2023-03-02T00:53:35.550Z,3.05
2023-03-02T00:56:03.686Z,4.00
2023-03-02T00:58:33.013Z,3.50
2023-03-02T01:01:06.736Z,3.88
2023-03-02T01:03:36.020Z,2.78
2023-03-02T01:06:03.859Z,3.97
2023-03-02T01:08:31.080Z,4.07
2023-03-02T01:11:01.212Z,4.47
2023-03-02T01:13:28.517Z,3.53
2023-03-02T01:16:04.925Z,3.42
2023-03-02T01:18:32.928Z,3.83
2023-03-02T01:21:09.392Z,4.50
2023-03-02T01:23:36.450Z,3.70
2023-03-02T01:26:03.268Z,5.10
2023-03-02T01:28:30.203Z,5.90
2023-03-02T01:30:57.024Z,4.20
2023-03-02T01:33:24.017Z,3.53
2023-03-02T01:35:50.986Z,3.08
2023-03-02T01:38:17.906Z,3.17
2023-03-02T01:40:44.726Z,3.65
2023-03-02T01:43:14.834Z,2.92
2023-03-02T01:45:51.892Z,3.50
2023-03-02T01:48:39.588Z,4.57
2023-03-02T01:51:07.604Z,2.45
2023-03-02T01:53:36.888Z,3.08
2023-03-02T01:56:05.678Z,4.15
2023-03-02T01:58:35.661Z,3.35
2023-03-02T02:01:02.773Z,3.38
2023-03-02T02:03:31.174Z,3.00
2023-03-02T02:06:08.962Z,2.92
2023-03-02T02:08:37.446Z,4.45
2023-03-02T02:11:05.430Z,4.32
2023-03-02T02:13:33.039Z,3.78
2023-03-02T02:18:48.945Z,4.45
2023-03-02T02:21:16.540Z,4.07
2023-03-02T02:24:01.513Z,2.70
2023-03-02T02:26:44.745Z,3.47
2023-03-02T02:29:24.577Z,3.45
2023-03-02T02:31:57.407Z,4.45
2023-03-02T02:34:32.806Z,3.50
2023-03-02T02:37:09.500Z,5.97
2023-03-02T02:39:41.231Z,2.70
2023-03-02T02:42:15.289Z,4.57
2023-03-02T02:44:42.806Z,4.65
2023-03-02T02:47:20.941Z,3.80
2023-03-02T02:49:50.549Z,2.75
2023-03-02T02:52:20.533Z,3.20
2023-03-02T02:54:49.914Z,3.25
2023-03-02T02:57:18.272Z,3.10
2023-03-02T02:59:49.278Z,2.63
2023-03-02T03:02:20.526Z,4.45
2023-03-02T03:04:47.661Z,2.85
2023-03-02T03:07:22.203Z,3.20
2023-03-02T03:10:40.085Z,3.50
2023-03-02T03:13:10.768Z,4.57
2023-03-02T03:15:38.184Z,2.72
2023-03-02T03:18:06.201Z,2.17
2023-03-02T03:20:33.283Z,3.33
2023-03-02T03:23:00.766Z,4.30
2023-03-02T03:25:30.049Z,2.95
2023-03-02T03:27:56.937Z,2.90
2023-03-02T03:30:24.846Z,2.33
2023-03-02T03:32:52.617Z,2.20
2023-03-02T03:35:19.568Z,3.90
2023-03-02T03:37:48.405Z,2.58
2023-03-02T03:40:16.331Z,2.92
2023-03-02T03:42:44.722Z,3.05
2023-03-02T03:45:12.734Z,2.78
2023-03-02T03:47:40.947Z,4.55
2023-03-02T03:50:09.519Z,4.10
2023-03-02T03:52:37.148Z,3.40
2023-03-02T03:55:10.746Z,3.92
2023-03-02T03:57:38.240Z,4.07
2023-03-02T04:00:09.151Z,3.78
2023-03-02T04:02:42.024Z,4.35
2023-03-02T04:05:10.602Z,4.60
2023-03-02T04:07:39.193Z,5.20
2023-03-02T04:10:07.960Z,4.13
2023-03-02T04:12:39.577Z,3.42
2023-03-02T04:15:09.250Z,3.42
2023-03-02T04:17:36.123Z,3.70
2023-03-02T04:20:07.731Z,3.00
2023-03-02T04:22:35.325Z,3.58
2023-03-02T04:25:03.124Z,2.60
2023-03-02T04:27:30.678Z,2.15
2023-03-02T04:29:57.957Z,2.60
2023-03-02T04:32:24.984Z,4.45
2023-03-02T04:34:55.297Z,3.27
2023-03-02T04:37:22.728Z,2.53
2023-03-02T04:39:51.542Z,2.47
2023-03-02T04:42:21.873Z,2.25
2023-03-02T04:44:49.108Z,2.67
2023-03-02T04:47:15.915Z,3.13
2023-03-02T04:49:42.810Z,3.15
2023-03-02T04:52:10.116Z,3.38
2023-03-02T04:54:37.216Z,3.78
2023-03-02T04:57:04.049Z,5.53
2023-03-02T04:59:30.925Z,3.95
2023-03-02T05:01:59.480Z,3.42
2023-03-02T05:04:27.593Z,4.13
2023-03-02T05:06:54.534Z,4.20
2023-03-02T05:09:27.103Z,5.22
2023-03-02T05:11:55.161Z,5.25
2023-03-02T05:14:22.152Z,4.05
2023-03-02T05:16:49.096Z,4.90
2023-03-02T05:19:15.914Z,2.75
2023-03-02T05:21:43.248Z,4.10
2023-03-02T05:24:10.358Z,5.32
2023-03-02T05:26:37.733Z,3.83
2023-03-02T05:29:14.605Z,5.05
2023-03-02T05:31:44.677Z,3.00
2023-03-02T05:34:13.394Z,3.22
2023-03-02T05:36:40.498Z,3.35
2023-03-02T05:39:09.121Z,3.45
2023-03-02T05:41:36.888Z,3.15
2023-03-02T05:44:04.625Z,2.83
2023-03-02T05:46:33.093Z,4.85
2023-03-02T05:49:00.055Z,4.80
2023-03-02T05:51:27.906Z,4.65
2023-03-02T05:53:54.742Z,3.35
2023-03-02T05:56:22.493Z,4.28
2023-03-02T05:58:49.286Z,3.97
2023-03-02T06:01:16.122Z,3.90
2023-03-02T06:03:43.619Z,3.80
2023-03-02T06:06:13.870Z,3.00
2023-03-02T06:08:42.333Z,3.35
2023-03-02T06:11:10.024Z,3.15
2023-03-02T06:13:37.061Z,4.18
2023-03-02T06:16:04.684Z,1.85
2023-03-02T06:18:31.681Z,3.40
2023-03-02T06:20:58.898Z,3.80
2023-03-02T06:23:25.894Z,3.85
2023-03-02T06:25:52.695Z,3.03
2023-03-02T06:28:20.321Z,3.58
2023-03-02T06:30:52.248Z,3.90
2023-03-02T06:33:21.095Z,3.08
2023-03-02T06:35:48.300Z,3.38
2023-03-02T06:38:15.227Z,2.72
2023-03-02T06:40:42.016Z,3.38
2023-03-02T06:43:08.913Z,3.22
2023-03-02T06:45:35.828Z,2.53
2023-03-02T06:48:02.767Z,3.15
2023-03-02T06:50:29.820Z,2.60
2023-03-02T06:52:56.833Z,2.78
2023-03-02T06:55:24.247Z,2.25
2023-03-02T06:57:51.124Z,2.80
2023-03-02T07:00:25.857Z,2.47
2023-03-02T07:02:53.576Z,3.55
2023-03-02T07:05:21.303Z,2.70
2023-03-02T07:07:48.484Z,3.25
2023-03-02T07:10:15.432Z,2.60
2023-03-02T07:12:42.558Z,4.28
2023-03-02T07:15:14.353Z,4.18
2023-03-02T07:17:43.536Z,4.07
2023-03-02T07:20:14.813Z,2.33
2023-03-02T07:22:42.471Z,3.70
2023-03-02T07:25:10.664Z,2.45
2023-03-02T07:27:38.072Z,3.53
2023-03-02T07:30:06.408Z,2.92
2023-03-02T07:32:33.329Z,2.70
2023-03-02T07:35:00.463Z,3.22
2023-03-02T07:37:27.481Z,2.90
2023-03-02T07:39:54.252Z,3.72
2023-03-02T07:42:21.401Z,3.13
2023-03-02T07:44:54.077Z,2.67
2023-03-02T07:47:21.026Z,3.53
2023-03-02T07:49:47.857Z,2.67
2023-03-02T07:52:15.184Z,3.33
2023-03-02T07:54:42.096Z,2.42
2023-03-02T07:57:08.988Z,3.67
2023-03-02T07:59:35.745Z,4.03
2023-03-02T08:02:02.608Z,3.25
2023-03-02T08:04:29.449Z,3.20
2023-03-02T08:06:56.333Z,2.47
2023-03-02T08:09:23.134Z,5.22
2023-03-02T08:11:49.974Z,7.90
2023-03-02T08:14:16.762Z,9.48
2023-03-02T08:16:43.694Z,4.95
2023-03-02T08:19:10.594Z,4.97
2023-03-02T08:21:37.430Z,4.10
2023-03-02T08:24:04.846Z,2.58
2023-03-02T08:26:31.829Z,3.53
2023-03-02T08:28:59.162Z,3.58
2023-03-02T08:31:26.297Z,4.30
2023-03-02T08:33:53.423Z,3.28
2023-03-02T08:36:20.645Z,3.35
2023-03-02T08:38:48.823Z,3.58
2023-03-02T08:41:19.653Z,7.90
2023-03-02T08:43:47.244Z,9.90
2023-03-02T08:46:17.549Z,3.45
2023-03-02T08:48:45.352Z,3.15
2023-03-02T08:51:14.777Z,3.35
2023-03-02T08:53:44.059Z,2.88
2023-03-02T08:56:22.482Z,4.53
2023-03-02T08:58:50.527Z,4.30
2023-03-02T09:01:23.851Z,4.65
2023-03-02T09:03:51.501Z,3.97
2023-03-02T09:06:18.750Z,3.40
2023-03-02T09:08:45.700Z,3.55
2023-03-02T09:11:12.557Z,5.30
2023-03-02T09:13:39.933Z,3.80
2023-03-02T09:16:08.583Z,4.32
2023-03-02T09:18:38.369Z,3.50
2023-03-02T09:21:05.822Z,3.25
2023-03-02T09:23:33.705Z,4.88
2023-03-02T09:26:01.133Z,6.05
2023-03-02T09:28:28.151Z,4.80
2023-03-02T09:31:00.273Z,4.07
2023-03-02T09:33:30.770Z,4.13
2023-03-02T09:35:57.845Z,5.57
2023-03-02T09:38:25.134Z,6.30
2023-03-02T09:41:50.576Z,5.40
2023-03-02T09:44:54.567Z,4.53
2023-03-02T09:47:45.119Z,5.28
2023-03-02T09:53:11.882Z,3.85
2023-03-02T09:55:40.131Z,4.28
2023-03-02T09:58:16.323Z,5.85
2023-03-02T10:00:47.685Z,11.50
2023-03-02T10:03:18.117Z,6.47
2023-03-02T10:05:50.714Z,3.67
2023-03-02T10:08:23.281Z,5.38
2023-03-02T10:11:21.618Z,5.32
2023-03-02T10:14:02.568Z,4.97
2023-03-02T10:16:54.969Z,4.78
2023-03-02T10:19:42.117Z,4.50
2023-03-02T10:22:41.278Z,5.88
2023-03-02T10:25:26.355Z,4.57
2023-03-02T10:28:01.946Z,4.53
2023-03-02T10:30:35.404Z,5.60
2023-03-02T10:33:16.877Z,5.15
2023-03-02T10:35:50.505Z,5.18
2023-03-02T10:38:23.465Z,5.40
2023-03-02T10:41:00.311Z,4.82
2023-03-02T10:43:37.249Z,8.20
2023-03-02T10:46:09.629Z,6.65
2023-03-02T10:48:49.803Z,5.80
2023-03-02T10:51:30.580Z,6.33
2023-03-02T10:54:06.659Z,5.82
2023-03-02T10:56:35.166Z,6.72
2023-03-02T10:59:12.756Z,4.63
2023-03-02T11:01:39.648Z,5.03
2023-03-02T11:04:17.871Z,5.63
2023-03-02T11:06:44.770Z,5.28
2023-03-02T11:09:14.510Z,4.97
2023-03-02T11:11:56.946Z,5.53
2023-03-02T11:14:23.939Z,5.65
2023-03-02T11:16:54.490Z,6.00
2023-03-02T11:19:36.886Z,6.20
2023-03-02T11:22:21.704Z,5.63
2023-03-02T11:24:53.478Z,5.90
2023-03-02T11:27:29.754Z,3.85
2023-03-02T11:29:59.119Z,6.60
2023-03-02T11:32:37.352Z,4.72
2023-03-02T11:35:31.758Z,5.60
2023-03-02T11:38:19.393Z,5.68
2023-03-02T11:41:04.527Z,5.13
2023-03-02T11:43:31.422Z,4.78
2023-03-02T11:46:13.925Z,5.18
2023-03-02T11:48:49.129Z,5.45
2023-03-02T11:51:42.372Z,5.65
2023-03-02T11:54:52.798Z,5.13
2023-03-02T11:57:31.028Z,5.22
2023-03-02T11:59:58.841Z,5.78
2023-03-02T12:02:27.424Z,9.07
2023-03-02T12:05:23.496Z,5.38
2023-03-02T12:08:01.429Z,4.75
2023-03-02T12:10:39.387Z,6.20
2023-03-02T12:13:20.871Z,5.72
2023-03-02T12:15:52.447Z,6.47
2023-03-02T12:18:22.242Z,6.03
2023-03-02T12:21:08.328Z,6.13
2023-03-02T12:23:41.100Z,5.63
2023-03-02T12:26:20.082Z,5.38
2023-03-02T12:29:11.275Z,5.70
2023-03-02T12:31:56.936Z,4.32
2023-03-02T12:34:24.046Z,5.82
2023-03-02T12:36:54.568Z,6.25
2023-03-02T12:39:50.847Z,5.10
2023-03-02T12:42:32.443Z,4.53
2023-03-02T12:45:20.496Z,5.47
2023-03-02T12:47:52.607Z,6.30
2023-03-02T12:50:23.268Z,4.70
2023-03-02T12:53:06.124Z,4.88
2023-03-02T12:55:34.373Z,3.92
2023-03-02T12:58:02.332Z,3.97
2023-03-02T13:00:33.053Z,6.47
2023-03-02T13:03:02.210Z,6.97
2023-03-02T13:05:34.724Z,4.97
2023-03-02T13:08:29.113Z,3.20
2023-03-02T13:11:00.240Z,3.90
2023-03-02T13:16:18.023Z,3.83
2023-03-02T13:18:45.595Z,2.80
2023-03-02T13:21:14.813Z,2.70
2023-03-02T13:23:47.217Z,3.03
2023-03-02T13:26:27.008Z,2.63
2023-03-02T13:29:19.237Z,3.30
2023-03-02T13:31:46.491Z,3.47
2023-03-02T13:34:28.263Z,2.00
2023-03-02T13:36:55.298Z,2.85
2023-03-02T13:39:28.675Z,2.65
2023-03-02T13:42:01.714Z,2.78
2023-03-02T13:44:34.462Z,5.60
2023-03-02T13:47:02.056Z,3.80
2023-03-02T13:49:34.171Z,3.13
2023-03-02T13:52:27.416Z,2.30
2023-03-02T13:54:54.532Z,2.90
2023-03-02T13:57:29.746Z,3.53
2023-03-02T13:59:59.162Z,2.63
2023-03-02T14:02:28.838Z,2.30
2023-03-02T14:04:56.944Z,2.88
2023-03-02T14:07:23.940Z,2.55
2023-03-02T14:09:50.878Z,2.70
2023-03-02T14:12:30.989Z,2.80
2023-03-02T14:15:00.325Z,3.13
2023-03-02T14:17:27.245Z,2.30
2023-03-02T14:19:55.281Z,2.88
2023-03-02T14:22:25.052Z,2.92
2023-03-02T14:24:52.015Z,2.40
2023-03-02T14:27:19.710Z,2.65
2023-03-02T14:29:47.382Z,2.75
2023-03-02T14:32:15.528Z,3.55
2023-03-02T14:34:43.522Z,3.08
2023-03-02T14:37:19.023Z,3.25
2023-03-02T14:39:55.333Z,2.85
2023-03-02T14:42:22.963Z,2.90
2023-03-02T14:44:51.284Z,3.13
2023-03-02T14:47:19.504Z,3.33
2023-03-02T14:49:46.945Z,2.78
2023-03-02T14:52:19.762Z,5.15
2023-03-02T14:54:56.530Z,4.35
2023-03-02T14:57:25.687Z,2.83
2023-03-02T14:59:53.251Z,2.67
2023-03-02T15:02:26.135Z,2.70
2023-03-02T15:04:57.398Z,3.08
2023-03-02T15:07:27.211Z,2.38
2023-03-02T15:09:57.688Z,4.65
2023-03-02T15:12:24.960Z,3.55
2023-03-02T15:14:54.719Z,3.30
2023-03-02T15:17:21.682Z,3.20
2023-03-02T15:19:48.477Z,3.05
2023-03-02T15:22:15.757Z,2.67
2023-03-02T15:24:42.616Z,3.33
2023-03-02T15:27:09.860Z,3.70
2023-03-02T15:29:36.654Z,2.92
2023-03-02T15:32:03.823Z,3.60
2023-03-02T15:34:30.767Z,2.92
2023-03-02T15:36:57.553Z,4.25
2023-03-02T15:39:24.560Z,3.88
2023-03-02T15:41:51.553Z,3.97
2023-03-02T15:44:22.110Z,4.43
2023-03-02T15:49:21.021Z,3.83
2023-03-02T15:54:15.472Z,3.17
2023-03-02T15:56:44.244Z,3.85
2023-03-02T15:59:11.929Z,3.40
2023-03-02T16:01:38.888Z,3.80
2023-03-02T16:04:05.734Z,4.15
2023-03-02T16:06:32.664Z,4.38
2023-03-02T16:08:59.884Z,3.95
2023-03-02T16:11:26.791Z,3.92
2023-03-02T16:13:53.552Z,4.63
2023-03-02T16:16:21.394Z,5.05
2023-03-02T16:18:52.342Z,4.75
2023-03-02T16:23:49.699Z,3.88
2023-03-02T16:26:21.595Z,4.55
2023-03-02T16:28:48.672Z,4.57
2023-03-02T16:31:20.425Z,5.00
2023-03-02T16:33:49.979Z,4.07
2023-03-02T16:36:16.964Z,5.35
2023-03-02T16:38:44.143Z,4.53
2023-03-02T16:41:16.618Z,5.40
2023-03-02T16:43:55.640Z,4.68
2023-03-02T16:46:24.263Z,5.05
2023-03-02T16:48:51.371Z,4.97
2023-03-02T16:51:19.790Z,4.97
2023-03-02T16:53:47.058Z,6.25
2023-03-02T16:56:14.592Z,5.75
2023-03-02T16:58:42.432Z,7.32
2023-03-02T17:01:12.401Z,6.63
2023-03-02T17:03:39.306Z,5.53
2023-03-02T17:06:08.751Z,6.25
2023-03-02T17:08:35.893Z,5.72
2023-03-02T17:11:08.117Z,5.90
2023-03-02T17:13:36.584Z,5.90
2023-03-02T17:16:03.592Z,5.78
2023-03-02T17:18:30.818Z,6.10
2023-03-02T17:20:59.043Z,6.32
2023-03-02T17:23:27.114Z,6.60
2023-03-02T17:25:54.834Z,6.07
2023-03-02T17:28:21.721Z,6.70
2023-03-02T17:30:48.576Z,6.82
2023-03-02T17:33:16.784Z,6.65
2023-03-02T17:35:43.905Z,6.43
2023-03-02T17:38:11.551Z,6.75
2023-03-02T17:40:38.519Z,6.30
2023-03-02T17:43:05.352Z,6.88
2023-03-02T17:45:32.182Z,6.75
2023-03-02T17:47:59.925Z,6.93
2023-03-02T17:50:31.695Z,6.32
2023-03-02T17:52:59.762Z,6.88
2023-03-02T17:55:28.221Z,5.75
2023-03-02T17:57:58.595Z,7.07
2023-03-02T18:00:25.900Z,8.13
2023-03-02T18:02:53.462Z,6.68
2023-03-02T18:05:21.510Z,6.68
2023-03-02T18:07:48.514Z,6.78
2023-03-02T18:10:15.518Z,7.38
2023-03-02T18:12:42.355Z,7.10
2023-03-02T18:15:11.665Z,9.73
2023-03-02T18:17:38.515Z,8.43
2023-03-02T18:20:05.850Z,8.73
2023-03-02T18:22:32.818Z,7.57
2023-03-02T18:24:59.693Z,6.95
2023-03-02T18:27:26.597Z,6.90
2023-03-02T18:29:53.436Z,6.55
2023-03-02T18:32:20.444Z,6.63
2023-03-02T18:34:47.510Z,7.53
2023-03-02T18:37:14.351Z,8.27
2023-03-02T18:39:41.173Z,7.70
2023-03-02T18:42:08.415Z,9.13
2023-03-02T18:44:36.362Z,7.63
2023-03-02T18:47:03.347Z,8.43
2023-03-02T18:49:30.502Z,8.13
2023-03-02T18:51:57.417Z,8.25
2023-03-02T18:54:24.661Z,8.60
2023-03-02T18:56:52.014Z,7.60
2023-03-02T18:59:18.828Z,9.05
2023-03-02T19:01:46.295Z,8.57
2023-03-02T19:04:14.480Z,8.30
2023-03-02T19:06:42.153Z,10.38
2023-03-02T19:09:09.218Z,11.23
2023-03-02T19:11:36.282Z,10.77
2023-03-02T19:14:03.483Z,10.05
2023-03-02T19:16:30.383Z,9.57
2023-03-02T19:18:57.432Z,11.25
2023-03-02T19:21:24.258Z,12.77
2023-03-02T19:23:51.083Z,14.98
2023-03-02T19:26:18.094Z,14.95
2023-03-02T19:28:44.957Z,10.75
2023-03-02T19:31:12.507Z,11.10
2023-03-02T19:33:41.094Z,12.48
2023-03-02T19:36:08.810Z,11.65
2023-03-02T19:38:37.819Z,10.38
2023-03-02T19:41:04.899Z,11.27
2023-03-02T19:43:32.155Z,13.00
2023-03-02T19:45:59.094Z,11.98
2023-03-02T19:48:26.362Z,12.60
2023-03-02T19:50:53.432Z,13.27
2023-03-02T19:53:20.368Z,14.25
2023-03-02T19:55:47.372Z,12.43
2023-03-02T19:58:18.965Z,14.52
2023-03-02T20:00:46.988Z,13.10
2023-03-02T20:03:14.715Z,12.63
2023-03-02T20:05:41.687Z,15.02
2023-03-02T20:08:08.761Z,17.77
2023-03-02T20:10:37.196Z,14.35
2023-03-02T20:13:04.964Z,15.75
2023-03-02T20:15:34.677Z,14.85
2023-03-02T20:18:02.725Z,12.38
2023-03-02T20:20:30.878Z,9.50
2023-03-02T20:22:59.983Z,11.50
2023-03-02T20:25:28.577Z,12.85
2023-03-02T20:27:56.347Z,13.95
2023-03-02T20:30:27.641Z,14.10
2023-03-02T20:32:56.397Z,11.77
2023-03-02T20:35:24.658Z,10.57
2023-03-02T20:37:52.172Z,11.95
2023-03-02T20:40:20.041Z,12.63
2023-03-02T20:42:46.934Z,14.77
2023-03-02T20:45:14.135Z,16.48
2023-03-02T20:47:42.397Z,12.77
2023-03-02T20:50:13.053Z,12.18
2023-03-02T20:52:39.946Z,17.05
2023-03-02T20:55:07.421Z,15.50
2023-03-02T20:57:34.713Z,13.45
2023-03-02T21:00:02.500Z,13.65
2023-03-02T21:02:29.422Z,14.13
2023-03-02T21:04:56.257Z,16.83
2023-03-02T21:07:23.826Z,12.25
2023-03-02T21:09:50.665Z,12.45
2023-03-02T21:12:17.710Z,12.88
2023-03-02T21:14:44.596Z,15.00
2023-03-02T21:17:11.607Z,14.65
2023-03-02T21:19:38.457Z,16.23
2023-03-02T21:22:05.661Z,11.25
2023-03-02T21:24:32.548Z,14.30
2023-03-02T21:27:01.352Z,12.70
2023-03-02T21:29:31.552Z,13.00
2023-03-02T21:31:58.646Z,12.98
2023-03-02T21:34:25.699Z,14.13
2023-03-02T21:36:53.714Z,17.27
2023-03-02T21:39:23.828Z,14.98
2023-03-02T21:41:53.129Z,13.03
2023-03-02T21:44:20.374Z,14.30
2023-03-02T21:46:48.059Z,13.65
2023-03-02T21:49:17.378Z,11.35
2023-03-02T21:51:48.979Z,11.65
2023-03-02T21:54:17.342Z,12.80
2023-03-02T21:56:44.404Z,13.68
2023-03-02T21:59:12.047Z,13.73
2023-03-02T22:01:38.975Z,12.40
2023-03-02T22:04:06.216Z,13.43
2023-03-02T22:06:34.735Z,11.75
2023-03-02T22:09:03.288Z,12.73
2023-03-02T22:11:36.091Z,13.25
2023-03-02T22:14:12.856Z,12.77
2023-03-02T22:16:42.182Z,12.65
2023-03-02T22:19:23.646Z,11.20
2023-03-02T22:21:50.655Z,13.80
2023-03-02T22:24:39.227Z,14.48
2023-03-02T22:27:25.523Z,13.20
2023-03-02T22:29:56.593Z,10.68
2023-03-02T22:35:19.365Z,10.45
2023-03-02T22:37:46.350Z,13.25
2023-03-02T22:40:34.730Z,14.13
2023-03-02T22:43:22.599Z,15.10
2023-03-02T22:45:49.462Z,12.60
2023-03-02T22:48:29.773Z,13.35
2023-03-02T22:50:56.661Z,13.85
2023-03-02T22:53:32.309Z,12.60
2023-03-02T22:56:01.929Z,11.90
2023-03-02T22:58:42.549Z,11.57
2023-03-02T23:01:23.260Z,10.90
2023-03-02T23:03:57.170Z,11.77
2023-03-02T23:06:25.301Z,12.82
2023-03-02T23:08:53.817Z,12.07
2023-03-02T23:11:23.284Z,13.43
2023-03-02T23:13:52.168Z,14.38
2023-03-02T23:16:26.261Z,15.32
2023-03-02T23:18:56.457Z,11.98
2023-03-02T23:21:33.626Z,12.00
2023-03-02T23:24:01.448Z,10.18
2023-03-02T23:26:28.208Z,12.93
2023-03-02T23:28:55.392Z,13.23
2023-03-02T23:31:22.306Z,11.30
2023-03-02T23:33:49.347Z,10.13
2023-03-02T23:36:16.587Z,9.70
2023-03-02T23:38:43.429Z,13.35
2023-03-02T23:41:10.208Z,9.07
2023-03-02T23:43:37.115Z,10.85
2023-03-02T23:46:04.679Z,12.02
2023-03-02T23:48:31.855Z,10.55
2023-03-02T23:50:58.665Z,12.45
2023-03-02T23:53:26.017Z,11.07
2023-03-02T23:55:54.631Z,10.18
2023-03-02T23:58:21.864Z,9.63
